sensor_id;sensor_type;location;lat;lon;timestamp;temperature;humidity
20081;DHT22;10200;49.232;9.222;2024-01-25T00:02:03;10.30;99.90
20081;DHT22;10200;49.232;9.222;2024-01-25T00:04:28;10.30;99.90
20081;DHT22;10200;49.232;9.222;2024-01-25T00:06:54;10.30;99.90
20081;DHT22;10200;49.232;9.222;2024-01-25T00:09:19;10.40;99.90
20081;DHT22;10200;49.232;9.222;2024-01-25T00:11:45;10.30;99.90
20081;DHT22;10200;49.232;9.222;2024-01-25T00:14:11;10.30;99.90
20081;DHT22;10200;49.232;9.222;2024-01-25T00:16:41;10.40;99.90
20081;DHT22;10200;49.232;9.222;2024-01-25T00:19:06;10.30;99.90
20081;DHT22;10200;49.232;9.222;2024-01-25T00:21:32;10.30;99.90
20081;DHT22;10200;49.232;9.222;2024-01-25T00:23:57;10.30;99.90
20081;DHT22;10200;49.232;9.222;2024-01-25T00:26:23;10.30;99.90
20081;DHT22;10200;49.232;9.222;2024-01-25T00:28:48;10.30;99.90
20081;DHT22;10200;49.232;9.222;2024-01-25T00:31:14;10.30;99.90
20081;DHT22;10200;49.232;9.222;2024-01-25T00:33:40;10.30;99.90
20081;DHT22;10200;49.232;9.222;2024-01-25T00:36:06;10.30;99.90
20081;DHT22;10200;49.232;9.222;2024-01-25T00:38:32;10.30;99.90
20081;DHT22;10200;49.232;9.222;2024-01-25T00:40:57;10.30;99.90
20081;DHT22;10200;49.232;9.222;2024-01-25T00:43:23;10.20;99.90
20081;DHT22;10200;49.232;9.222;2024-01-25T00:45:49;10.20;99.90
20081;DHT22;10200;49.232;9.222;2024-01-25T00:48:15;10.20;99.90
20081;DHT22;10200;49.232;9.222;2024-01-25T00:50:41;10.20;99.90
20081;DHT22;10200;49.232;9.222;2024-01-25T00:53:07;10.20;99.90
20081;DHT22;10200;49.232;9.222;2024-01-25T00:55:32;10.20;99.90
20081;DHT22;10200;49.232;9.222;2024-01-25T00:57:58;10.20;99.90
20081;DHT22;10200;49.232;9.222;2024-01-25T01:00:25;10.20;99.90
20081;DHT22;10200;49.232;9.222;2024-01-25T01:02:53;10.20;99.90
20081;DHT22;10200;49.232;9.222;2024-01-25T01:05:19;10.20;99.90
20081;DHT22;10200;49.232;9.222;2024-01-25T01:07:45;10.20;99.90
20081;DHT22;10200;49.232;9.222;2024-01-25T01:10:11;10.20;99.90
20081;DHT22;10200;49.232;9.222;2024-01-25T01:12:37;10.20;99.90
20081;DHT22;10200;49.232;9.222;2024-01-25T01:15:02;10.20;99.90
20081;DHT22;10200;49.232;9.222;2024-01-25T01:17:29;10.10;99.90
20081;DHT22;10200;49.232;9.222;2024-01-25T01:19:54;10.10;99.90
20081;DHT22;10200;49.232;9.222;2024-01-25T01:22:20;10.10;99.90
20081;DHT22;10200;49.232;9.222;2024-01-25T01:24:46;10.10;99.90
20081;DHT22;10200;49.232;9.222;2024-01-25T01:27:11;10.10;99.90
20081;DHT22;10200;49.232;9.222;2024-01-25T01:29:37;10.00;99.90
20081;DHT22;10200;49.232;9.222;2024-01-25T01:32:03;10.00;99.90
20081;DHT22;10200;49.232;9.222;2024-01-25T01:34:28;10.00;99.90
20081;DHT22;10200;49.232;9.222;2024-01-25T01:36:54;10.00;99.90
20081;DHT22;10200;49.232;9.222;2024-01-25T01:39:20;10.00;99.90
20081;DHT22;10200;49.232;9.222;2024-01-25T01:41:49;10.00;99.90
20081;DHT22;10200;49.232;9.222;2024-01-25T01:44:15;10.00;99.90
20081;DHT22;10200;49.232;9.222;2024-01-25T01:46:40;10.00;99.90
20081;DHT22;10200;49.232;9.222;2024-01-25T01:49:08;10.00;99.90
20081;DHT22;10200;49.232;9.222;2024-01-25T01:51:36;10.00;99.90
20081;DHT22;10200;49.232;9.222;2024-01-25T01:54:02;9.90;99.90
20081;DHT22;10200;49.232;9.222;2024-01-25T01:56:28;10.00;99.90
20081;DHT22;10200;49.232;9.222;2024-01-25T01:58:57;10.00;99.90
20081;DHT22;10200;49.232;9.222;2024-01-25T02:01:24;10.00;99.90
20081;DHT22;10200;49.232;9.222;2024-01-25T02:03:49;10.00;99.90
20081;DHT22;10200;49.232;9.222;2024-01-25T02:06:15;10.00;99.90
20081;DHT22;10200;49.232;9.222;2024-01-25T02:08:41;9.90;99.90
20081;DHT22;10200;49.232;9.222;2024-01-25T02:11:06;9.90;99.90
20081;DHT22;10200;49.232;9.222;2024-01-25T02:13:33;9.90;99.90
20081;DHT22;10200;49.232;9.222;2024-01-25T02:15:58;9.90;99.90
20081;DHT22;10200;49.232;9.222;2024-01-25T02:18:25;9.90;99.90
20081;DHT22;10200;49.232;9.222;2024-01-25T02:20:50;9.90;99.90
20081;DHT22;10200;49.232;9.222;2024-01-25T02:23:16;9.90;99.90
20081;DHT22;10200;49.232;9.222;2024-01-25T02:25:42;9.90;99.90
20081;DHT22;10200;49.232;9.222;2024-01-25T02:28:07;9.90;99.90
20081;DHT22;10200;49.232;9.222;2024-01-25T02:30:33;9.90;99.90
20081;DHT22;10200;49.232;9.222;2024-01-25T02:32:58;9.90;99.90
20081;DHT22;10200;49.232;9.222;2024-01-25T02:35:24;9.90;99.90
20081;DHT22;10200;49.232;9.222;2024-01-25T02:37:49;9.80;99.90
20081;DHT22;10200;49.232;9.222;2024-01-25T02:40:16;9.80;99.90
20081;DHT22;10200;49.232;9.222;2024-01-25T02:42:41;9.90;99.90
20081;DHT22;10200;49.232;9.222;2024-01-25T02:45:07;9.90;99.90
20081;DHT22;10200;49.232;9.222;2024-01-25T02:47:33;9.80;99.90
20081;DHT22;10200;49.232;9.222;2024-01-25T02:49:59;9.80;99.90
20081;DHT22;10200;49.232;9.222;2024-01-25T02:52:24;9.80;99.90
20081;DHT22;10200;49.232;9.222;2024-01-25T02:54:50;9.80;99.90
20081;DHT22;10200;49.232;9.222;2024-01-25T02:57:17;9.80;99.90
20081;DHT22;10200;49.232;9.222;2024-01-25T02:59:42;9.80;99.90
20081;DHT22;10200;49.232;9.222;2024-01-25T03:02:08;9.80;99.90
20081;DHT22;10200;49.232;9.222;2024-01-25T03:04:33;9.80;99.90
20081;DHT22;10200;49.232;9.222;2024-01-25T03:06:59;9.80;99.90
20081;DHT22;10200;49.232;9.222;2024-01-25T03:09:24;9.80;99.90
20081;DHT22;10200;49.232;9.222;2024-01-25T03:11:50;9.80;99.90
20081;DHT22;10200;49.232;9.222;2024-01-25T03:14:16;9.70;99.90
20081;DHT22;10200;49.232;9.222;2024-01-25T03:16:41;9.80;99.90
20081;DHT22;10200;49.232;9.222;2024-01-25T03:19:08;9.70;99.90
20081;DHT22;10200;49.232;9.222;2024-01-25T03:21:34;9.70;99.90
20081;DHT22;10200;49.232;9.222;2024-01-25T03:23:59;9.70;99.90
20081;DHT22;10200;49.232;9.222;2024-01-25T03:26:27;9.70;99.90
20081;DHT22;10200;49.232;9.222;2024-01-25T03:28:53;9.70;99.90
20081;DHT22;10200;49.232;9.222;2024-01-25T03:31:18;9.70;99.90
20081;DHT22;10200;49.232;9.222;2024-01-25T03:33:44;9.60;99.90
20081;DHT22;10200;49.232;9.222;2024-01-25T03:36:13;9.70;99.90
20081;DHT22;10200;49.232;9.222;2024-01-25T03:38:39;9.70;99.90
20081;DHT22;10200;49.232;9.222;2024-01-25T03:41:04;9.60;99.90
20081;DHT22;10200;49.232;9.222;2024-01-25T03:43:30;9.60;99.90
20081;DHT22;10200;49.232;9.222;2024-01-25T03:45:56;9.60;99.90
20081;DHT22;10200;49.232;9.222;2024-01-25T03:48:21;9.60;99.90
20081;DHT22;10200;49.232;9.222;2024-01-25T03:50:47;9.60;99.90
20081;DHT22;10200;49.232;9.222;2024-01-25T03:53:13;9.50;99.90
20081;DHT22;10200;49.232;9.222;2024-01-25T03:55:39;9.50;99.90
20081;DHT22;10200;49.232;9.222;2024-01-25T03:58:04;9.50;99.90
20081;DHT22;10200;49.232;9.222;2024-01-25T04:00:30;9.50;99.90
20081;DHT22;10200;49.232;9.222;2024-01-25T04:02:55;9.50;99.90
20081;DHT22;10200;49.232;9.222;2024-01-25T04:05:21;9.50;99.90
20081;DHT22;10200;49.232;9.222;2024-01-25T04:07:47;9.50;99.90
20081;DHT22;10200;49.232;9.222;2024-01-25T04:10:12;9.50;99.90
20081;DHT22;10200;49.232;9.222;2024-01-25T04:12:38;9.50;99.90
20081;DHT22;10200;49.232;9.222;2024-01-25T04:15:05;9.50;99.90
20081;DHT22;10200;49.232;9.222;2024-01-25T04:17:30;9.50;99.90
20081;DHT22;10200;49.232;9.222;2024-01-25T04:19:56;9.40;99.90
20081;DHT22;10200;49.232;9.222;2024-01-25T04:22:22;9.40;99.90
20081;DHT22;10200;49.232;9.222;2024-01-25T04:24:47;9.40;99.90
20081;DHT22;10200;49.232;9.222;2024-01-25T04:27:14;9.30;99.90
20081;DHT22;10200;49.232;9.222;2024-01-25T04:29:41;9.30;99.90
20081;DHT22;10200;49.232;9.222;2024-01-25T04:32:09;9.30;99.90
20081;DHT22;10200;49.232;9.222;2024-01-25T04:34:35;9.20;99.90
20081;DHT22;10200;49.232;9.222;2024-01-25T04:37:01;9.20;99.90
20081;DHT22;10200;49.232;9.222;2024-01-25T04:39:27;9.20;99.90
20081;DHT22;10200;49.232;9.222;2024-01-25T04:41:53;9.10;99.90
20081;DHT22;10200;49.232;9.222;2024-01-25T04:44:18;9.10;99.90
20081;DHT22;10200;49.232;9.222;2024-01-25T04:46:44;9.00;99.90
20081;DHT22;10200;49.232;9.222;2024-01-25T04:49:10;9.00;99.90
20081;DHT22;10200;49.232;9.222;2024-01-25T04:51:35;9.00;99.90
20081;DHT22;10200;49.232;9.222;2024-01-25T04:54:01;9.00;99.90
20081;DHT22;10200;49.232;9.222;2024-01-25T04:56:29;9.00;99.90
20081;DHT22;10200;49.232;9.222;2024-01-25T04:58:54;9.00;99.90
20081;DHT22;10200;49.232;9.222;2024-01-25T05:01:20;8.90;99.90
20081;DHT22;10200;49.232;9.222;2024-01-25T05:03:45;8.90;99.90
20081;DHT22;10200;49.232;9.222;2024-01-25T05:06:11;8.90;99.90
20081;DHT22;10200;49.232;9.222;2024-01-25T05:08:37;8.90;99.90
20081;DHT22;10200;49.232;9.222;2024-01-25T05:11:02;8.80;99.90
20081;DHT22;10200;49.232;9.222;2024-01-25T05:13:28;8.80;99.90
20081;DHT22;10200;49.232;9.222;2024-01-25T05:15:54;8.80;99.90
20081;DHT22;10200;49.232;9.222;2024-01-25T05:18:19;8.80;99.90
20081;DHT22;10200;49.232;9.222;2024-01-25T05:20:45;8.80;99.90
20081;DHT22;10200;49.232;9.222;2024-01-25T05:23:11;8.80;99.90
20081;DHT22;10200;49.232;9.222;2024-01-25T05:25:36;8.80;99.90
20081;DHT22;10200;49.232;9.222;2024-01-25T05:28:02;8.70;99.90
20081;DHT22;10200;49.232;9.222;2024-01-25T05:30:28;8.80;99.90
20081;DHT22;10200;49.232;9.222;2024-01-25T05:32:53;8.70;99.90
20081;DHT22;10200;49.232;9.222;2024-01-25T05:35:20;8.70;99.90
20081;DHT22;10200;49.232;9.222;2024-01-25T05:37:45;8.70;99.90
20081;DHT22;10200;49.232;9.222;2024-01-25T05:40:11;8.70;99.90
20081;DHT22;10200;49.232;9.222;2024-01-25T05:42:37;8.70;99.90
20081;DHT22;10200;49.232;9.222;2024-01-25T05:45:03;8.70;99.90
20081;DHT22;10200;49.232;9.222;2024-01-25T05:47:29;8.70;99.90
20081;DHT22;10200;49.232;9.222;2024-01-25T05:49:55;8.70;99.90
20081;DHT22;10200;49.232;9.222;2024-01-25T05:52:21;8.60;99.90
20081;DHT22;10200;49.232;9.222;2024-01-25T05:54:47;8.60;99.90
20081;DHT22;10200;49.232;9.222;2024-01-25T05:57:13;8.60;99.90
20081;DHT22;10200;49.232;9.222;2024-01-25T05:59:39;8.70;99.90
20081;DHT22;10200;49.232;9.222;2024-01-25T06:02:05;8.50;99.90
20081;DHT22;10200;49.232;9.222;2024-01-25T06:04:31;8.50;99.90
20081;DHT22;10200;49.232;9.222;2024-01-25T06:06:56;8.50;99.90
20081;DHT22;10200;49.232;9.222;2024-01-25T06:09:23;8.60;99.90
20081;DHT22;10200;49.232;9.222;2024-01-25T06:11:50;8.50;99.90
20081;DHT22;10200;49.232;9.222;2024-01-25T06:14:16;8.50;99.90
20081;DHT22;10200;49.232;9.222;2024-01-25T06:16:41;8.50;99.90
20081;DHT22;10200;49.232;9.222;2024-01-25T06:19:07;8.50;99.90
20081;DHT22;10200;49.232;9.222;2024-01-25T06:21:33;8.50;99.90
20081;DHT22;10200;49.232;9.222;2024-01-25T06:24:03;8.50;99.90
20081;DHT22;10200;49.232;9.222;2024-01-25T06:26:29;8.40;99.90
20081;DHT22;10200;49.232;9.222;2024-01-25T06:28:55;8.40;99.90
20081;DHT22;10200;49.232;9.222;2024-01-25T06:31:22;8.40;99.90
20081;DHT22;10200;49.232;9.222;2024-01-25T06:33:47;8.30;99.90
20081;DHT22;10200;49.232;9.222;2024-01-25T06:36:18;8.30;99.90
20081;DHT22;10200;49.232;9.222;2024-01-25T06:38:44;8.30;99.90
20081;DHT22;10200;49.232;9.222;2024-01-25T06:41:10;8.30;99.90
20081;DHT22;10200;49.232;9.222;2024-01-25T06:43:35;8.20;99.90
20081;DHT22;10200;49.232;9.222;2024-01-25T06:46:01;8.20;99.90
20081;DHT22;10200;49.232;9.222;2024-01-25T06:48:27;8.20;99.90
20081;DHT22;10200;49.232;9.222;2024-01-25T06:50:52;8.20;99.90
20081;DHT22;10200;49.232;9.222;2024-01-25T06:53:19;8.20;99.90
20081;DHT22;10200;49.232;9.222;2024-01-25T06:55:44;8.20;99.90
20081;DHT22;10200;49.232;9.222;2024-01-25T06:58:10;8.20;99.90
20081;DHT22;10200;49.232;9.222;2024-01-25T07:00:36;8.20;99.90
20081;DHT22;10200;49.232;9.222;2024-01-25T07:03:04;8.20;99.90
20081;DHT22;10200;49.232;9.222;2024-01-25T07:05:30;8.20;99.90
20081;DHT22;10200;49.232;9.222;2024-01-25T07:07:58;8.20;99.90
20081;DHT22;10200;49.232;9.222;2024-01-25T07:10:24;8.20;99.90
20081;DHT22;10200;49.232;9.222;2024-01-25T07:12:50;8.20;99.90
20081;DHT22;10200;49.232;9.222;2024-01-25T07:15:16;8.20;99.90
20081;DHT22;10200;49.232;9.222;2024-01-25T07:17:42;8.20;99.90
20081;DHT22;10200;49.232;9.222;2024-01-25T07:20:08;8.30;99.90
20081;DHT22;10200;49.232;9.222;2024-01-25T07:22:34;8.20;99.90
20081;DHT22;10200;49.232;9.222;2024-01-25T07:25:00;8.20;99.90
20081;DHT22;10200;49.232;9.222;2024-01-25T07:27:25;8.20;99.90
20081;DHT22;10200;49.232;9.222;2024-01-25T07:29:51;8.30;99.90
20081;DHT22;10200;49.232;9.222;2024-01-25T07:32:17;8.30;99.90
20081;DHT22;10200;49.232;9.222;2024-01-25T07:34:43;8.30;99.90
20081;DHT22;10200;49.232;9.222;2024-01-25T07:37:09;8.30;99.90
20081;DHT22;10200;49.232;9.222;2024-01-25T07:39:36;8.30;99.90
20081;DHT22;10200;49.232;9.222;2024-01-25T07:42:02;8.40;99.90
20081;DHT22;10200;49.232;9.222;2024-01-25T07:44:28;8.40;99.90
20081;DHT22;10200;49.232;9.222;2024-01-25T07:46:53;8.40;99.90
20081;DHT22;10200;49.232;9.222;2024-01-25T07:49:19;8.50;99.90
20081;DHT22;10200;49.232;9.222;2024-01-25T07:51:45;8.50;99.90
20081;DHT22;10200;49.232;9.222;2024-01-25T07:54:12;8.70;99.90
20081;DHT22;10200;49.232;9.222;2024-01-25T07:56:37;8.70;99.90
20081;DHT22;10200;49.232;9.222;2024-01-25T07:59:03;8.80;99.90
20081;DHT22;10200;49.232;9.222;2024-01-25T08:01:28;8.90;99.90
20081;DHT22;10200;49.232;9.222;2024-01-25T08:03:54;8.90;99.90
20081;DHT22;10200;49.232;9.222;2024-01-25T08:06:21;9.00;99.90
20081;DHT22;10200;49.232;9.222;2024-01-25T08:08:46;9.10;99.90
20081;DHT22;10200;49.232;9.222;2024-01-25T08:11:12;9.30;99.90
20081;DHT22;10200;49.232;9.222;2024-01-25T08:13:37;9.70;99.90
20081;DHT22;10200;49.232;9.222;2024-01-25T08:16:03;10.20;99.90
20081;DHT22;10200;49.232;9.222;2024-01-25T08:18:29;10.80;99.90
20081;DHT22;10200;49.232;9.222;2024-01-25T08:20:55;11.40;99.90
20081;DHT22;10200;49.232;9.222;2024-01-25T08:23:21;12.00;99.90
20081;DHT22;10200;49.232;9.222;2024-01-25T08:25:47;12.60;99.90
20081;DHT22;10200;49.232;9.222;2024-01-25T08:30:38;13.40;95.20
20081;DHT22;10200;49.232;9.222;2024-01-25T08:33:04;13.50;94.70
20081;DHT22;10200;49.232;9.222;2024-01-25T08:35:30;13.70;93.20
20081;DHT22;10200;49.232;9.222;2024-01-25T08:37:58;13.70;91.80
20081;DHT22;10200;49.232;9.222;2024-01-25T08:40:24;13.60;91.10
20081;DHT22;10200;49.232;9.222;2024-01-25T08:42:49;13.60;90.70
20081;DHT22;10200;49.232;9.222;2024-01-25T08:45:15;13.50;89.70
20081;DHT22;10200;49.232;9.222;2024-01-25T08:47:40;13.60;90.40
20081;DHT22;10200;49.232;9.222;2024-01-25T08:50:07;13.60;89.80
20081;DHT22;10200;49.232;9.222;2024-01-25T08:52:36;13.60;89.20
20081;DHT22;10200;49.232;9.222;2024-01-25T08:55:03;13.50;87.60
20081;DHT22;10200;49.232;9.222;2024-01-25T08:57:30;13.60;87.40
20081;DHT22;10200;49.232;9.222;2024-01-25T08:59:56;13.40;86.80
20081;DHT22;10200;49.232;9.222;2024-01-25T09:02:24;13.40;86.90
20081;DHT22;10200;49.232;9.222;2024-01-25T09:04:52;13.20;87.00
20081;DHT22;10200;49.232;9.222;2024-01-25T09:07:20;13.20;88.60
20081;DHT22;10200;49.232;9.222;2024-01-25T09:09:46;13.20;88.10
20081;DHT22;10200;49.232;9.222;2024-01-25T09:12:11;13.20;87.40
20081;DHT22;10200;49.232;9.222;2024-01-25T09:14:38;13.10;88.00
20081;DHT22;10200;49.232;9.222;2024-01-25T09:17:04;13.00;88.40
20081;DHT22;10200;49.232;9.222;2024-01-25T09:19:30;13.00;88.40
20081;DHT22;10200;49.232;9.222;2024-01-25T09:21:56;12.90;88.70
20081;DHT22;10200;49.232;9.222;2024-01-25T09:24:25;12.90;89.20
20081;DHT22;10200;49.232;9.222;2024-01-25T09:26:50;12.70;89.20
20081;DHT22;10200;49.232;9.222;2024-01-25T09:29:16;12.60;89.80
20081;DHT22;10200;49.232;9.222;2024-01-25T09:31:42;12.50;89.20
20081;DHT22;10200;49.232;9.222;2024-01-25T09:34:07;12.50;90.20
20081;DHT22;10200;49.232;9.222;2024-01-25T09:36:33;12.40;90.20
20081;DHT22;10200;49.232;9.222;2024-01-25T09:38:58;12.40;90.00
20081;DHT22;10200;49.232;9.222;2024-01-25T09:41:24;12.30;89.50
20081;DHT22;10200;49.232;9.222;2024-01-25T09:43:49;12.20;89.60
20081;DHT22;10200;49.232;9.222;2024-01-25T09:46:16;12.10;90.30
20081;DHT22;10200;49.232;9.222;2024-01-25T09:48:42;12.10;91.00
20081;DHT22;10200;49.232;9.222;2024-01-25T09:51:11;12.10;90.90
20081;DHT22;10200;49.232;9.222;2024-01-25T09:53:39;12.10;90.80
20081;DHT22;10200;49.232;9.222;2024-01-25T09:56:08;12.00;90.30
20081;DHT22;10200;49.232;9.222;2024-01-25T09:58:42;12.10;90.90
20081;DHT22;10200;49.232;9.222;2024-01-25T10:01:09;12.00;90.70
20081;DHT22;10200;49.232;9.222;2024-01-25T10:03:36;12.00;91.00
20081;DHT22;10200;49.232;9.222;2024-01-25T10:06:02;12.00;91.00
20081;DHT22;10200;49.232;9.222;2024-01-25T10:08:29;12.00;91.40
20081;DHT22;10200;49.232;9.222;2024-01-25T10:10:55;12.00;90.80
20081;DHT22;10200;49.232;9.222;2024-01-25T10:13:20;12.10;91.00
20081;DHT22;10200;49.232;9.222;2024-01-25T10:15:46;12.10;91.40
20081;DHT22;10200;49.232;9.222;2024-01-25T10:18:16;12.20;90.80
20081;DHT22;10200;49.232;9.222;2024-01-25T10:20:42;12.20;90.70
20081;DHT22;10200;49.232;9.222;2024-01-25T10:23:08;12.30;91.00
20081;DHT22;10200;49.232;9.222;2024-01-25T10:25:38;12.30;90.60
20081;DHT22;10200;49.232;9.222;2024-01-25T10:28:07;12.20;90.00
20081;DHT22;10200;49.232;9.222;2024-01-25T10:30:35;12.20;89.50
20081;DHT22;10200;49.232;9.222;2024-01-25T10:33:01;12.10;89.60
20081;DHT22;10200;49.232;9.222;2024-01-25T10:35:28;12.10;90.00
20081;DHT22;10200;49.232;9.222;2024-01-25T10:37:54;12.10;90.00
20081;DHT22;10200;49.232;9.222;2024-01-25T10:40:21;12.10;88.50
20081;DHT22;10200;49.232;9.222;2024-01-25T10:42:47;12.00;89.10
20081;DHT22;10200;49.232;9.222;2024-01-25T10:45:13;12.00;89.50
20081;DHT22;10200;49.232;9.222;2024-01-25T10:47:39;12.00;89.30
20081;DHT22;10200;49.232;9.222;2024-01-25T10:50:12;12.00;89.10
20081;DHT22;10200;49.232;9.222;2024-01-25T10:52:39;12.10;89.10
20081;DHT22;10200;49.232;9.222;2024-01-25T10:55:06;12.00;88.80
20081;DHT22;10200;49.232;9.222;2024-01-25T10:57:42;12.00;88.50
20081;DHT22;10200;49.232;9.222;2024-01-25T11:00:14;11.90;88.00
20081;DHT22;10200;49.232;9.222;2024-01-25T11:02:40;11.80;87.80
20081;DHT22;10200;49.232;9.222;2024-01-25T11:05:16;11.80;88.00
20081;DHT22;10200;49.232;9.222;2024-01-25T11:07:49;11.70;88.10
20081;DHT22;10200;49.232;9.222;2024-01-25T11:10:16;11.60;87.50
20081;DHT22;10200;49.232;9.222;2024-01-25T11:12:59;11.60;88.00
20081;DHT22;10200;49.232;9.222;2024-01-25T11:15:33;11.60;87.90
20081;DHT22;10200;49.232;9.222;2024-01-25T11:18:00;11.60;87.60
20081;DHT22;10200;49.232;9.222;2024-01-25T11:20:28;11.60;87.80
20081;DHT22;10200;49.232;9.222;2024-01-25T11:23:04;11.60;87.50
20081;DHT22;10200;49.232;9.222;2024-01-25T11:25:31;11.60;87.60
20081;DHT22;10200;49.232;9.222;2024-01-25T11:27:58;11.60;87.80
20081;DHT22;10200;49.232;9.222;2024-01-25T11:30:25;11.70;87.80
20081;DHT22;10200;49.232;9.222;2024-01-25T11:32:50;11.90;88.60
20081;DHT22;10200;49.232;9.222;2024-01-25T11:35:16;11.90;88.20
20081;DHT22;10200;49.232;9.222;2024-01-25T11:37:47;12.00;88.30
20081;DHT22;10200;49.232;9.222;2024-01-25T11:40:14;12.10;87.20
20081;DHT22;10200;49.232;9.222;2024-01-25T11:42:40;12.10;86.60
20081;DHT22;10200;49.232;9.222;2024-01-25T11:45:08;12.10;86.30
20081;DHT22;10200;49.232;9.222;2024-01-25T11:47:35;12.20;85.30
20081;DHT22;10200;49.232;9.222;2024-01-25T11:50:02;12.20;85.50
20081;DHT22;10200;49.232;9.222;2024-01-25T11:52:28;12.30;84.70
20081;DHT22;10200;49.232;9.222;2024-01-25T11:54:54;12.30;85.00
20081;DHT22;10200;49.232;9.222;2024-01-25T11:57:19;12.40;84.10
20081;DHT22;10200;49.232;9.222;2024-01-25T11:59:46;12.30;83.60
20081;DHT22;10200;49.232;9.222;2024-01-25T12:02:15;12.30;83.40
20081;DHT22;10200;49.232;9.222;2024-01-25T12:04:40;12.20;83.10
20081;DHT22;10200;49.232;9.222;2024-01-25T12:07:07;12.10;83.70
20081;DHT22;10200;49.232;9.222;2024-01-25T12:09:33;12.20;84.50
20081;DHT22;10200;49.232;9.222;2024-01-25T12:12:02;12.20;84.00
20081;DHT22;10200;49.232;9.222;2024-01-25T12:14:28;12.20;84.20
20081;DHT22;10200;49.232;9.222;2024-01-25T12:16:57;12.50;84.40
20081;DHT22;10200;49.232;9.222;2024-01-25T12:19:23;12.50;83.90
20081;DHT22;10200;49.232;9.222;2024-01-25T12:21:48;12.50;83.40
20081;DHT22;10200;49.232;9.222;2024-01-25T12:24:14;12.50;83.50
20081;DHT22;10200;49.232;9.222;2024-01-25T12:26:41;12.50;83.10
20081;DHT22;10200;49.232;9.222;2024-01-25T12:29:07;12.40;82.00
20081;DHT22;10200;49.232;9.222;2024-01-25T12:31:33;12.30;82.30
20081;DHT22;10200;49.232;9.222;2024-01-25T12:34:00;12.30;82.00
20081;DHT22;10200;49.232;9.222;2024-01-25T12:36:26;12.40;82.70
20081;DHT22;10200;49.232;9.222;2024-01-25T12:38:51;12.40;82.20
20081;DHT22;10200;49.232;9.222;2024-01-25T12:41:17;12.40;82.00
20081;DHT22;10200;49.232;9.222;2024-01-25T12:43:43;12.30;82.50
20081;DHT22;10200;49.232;9.222;2024-01-25T12:46:08;12.30;82.10
20081;DHT22;10200;49.232;9.222;2024-01-25T12:48:34;12.40;82.40
20081;DHT22;10200;49.232;9.222;2024-01-25T12:51:00;12.40;82.70
20081;DHT22;10200;49.232;9.222;2024-01-25T12:53:27;12.40;82.10
20081;DHT22;10200;49.232;9.222;2024-01-25T12:55:52;12.50;82.20
20081;DHT22;10200;49.232;9.222;2024-01-25T12:58:18;12.50;81.80
20081;DHT22;10200;49.232;9.222;2024-01-25T13:00:43;12.60;81.70
20081;DHT22;10200;49.232;9.222;2024-01-25T13:03:11;12.60;81.20
20081;DHT22;10200;49.232;9.222;2024-01-25T13:05:36;12.60;79.70
20081;DHT22;10200;49.232;9.222;2024-01-25T13:08:05;12.60;78.60
20081;DHT22;10200;49.232;9.222;2024-01-25T13:10:31;12.50;79.20
20081;DHT22;10200;49.232;9.222;2024-01-25T13:12:57;12.60;79.70
20081;DHT22;10200;49.232;9.222;2024-01-25T13:15:23;12.60;79.40
20081;DHT22;10200;49.232;9.222;2024-01-25T13:17:49;12.60;79.60
20081;DHT22;10200;49.232;9.222;2024-01-25T13:20:14;12.70;78.90
20081;DHT22;10200;49.232;9.222;2024-01-25T13:22:40;12.60;78.40
20081;DHT22;10200;49.232;9.222;2024-01-25T13:25:06;12.60;78.60
20081;DHT22;10200;49.232;9.222;2024-01-25T13:27:32;12.60;78.80
20081;DHT22;10200;49.232;9.222;2024-01-25T13:29:58;12.60;78.40
20081;DHT22;10200;49.232;9.222;2024-01-25T13:32:23;12.60;79.30
20081;DHT22;10200;49.232;9.222;2024-01-25T13:34:49;12.70;79.90
20081;DHT22;10200;49.232;9.222;2024-01-25T13:37:15;12.70;80.40
20081;DHT22;10200;49.232;9.222;2024-01-25T13:39:41;12.60;80.20
20081;DHT22;10200;49.232;9.222;2024-01-25T13:42:06;12.60;80.50
20081;DHT22;10200;49.232;9.222;2024-01-25T13:44:32;12.60;80.20
20081;DHT22;10200;49.232;9.222;2024-01-25T13:46:57;12.50;80.20
20081;DHT22;10200;49.232;9.222;2024-01-25T13:49:24;12.50;80.40
20081;DHT22;10200;49.232;9.222;2024-01-25T13:51:50;12.50;80.70
20081;DHT22;10200;49.232;9.222;2024-01-25T13:54:15;12.50;80.90
20081;DHT22;10200;49.232;9.222;2024-01-25T13:56:41;12.50;82.00
20081;DHT22;10200;49.232;9.222;2024-01-25T13:59:06;12.50;81.40
20081;DHT22;10200;49.232;9.222;2024-01-25T14:01:32;12.50;81.70
20081;DHT22;10200;49.232;9.222;2024-01-25T14:03:58;12.50;81.50
20081;DHT22;10200;49.232;9.222;2024-01-25T14:06:24;12.40;81.70
20081;DHT22;10200;49.232;9.222;2024-01-25T14:08:50;12.40;82.10
20081;DHT22;10200;49.232;9.222;2024-01-25T14:11:15;12.40;82.50
20081;DHT22;10200;49.232;9.222;2024-01-25T14:13:41;12.30;82.20
20081;DHT22;10200;49.232;9.222;2024-01-25T14:16:07;12.40;81.80
20081;DHT22;10200;49.232;9.222;2024-01-25T14:18:37;12.30;81.80
20081;DHT22;10200;49.232;9.222;2024-01-25T14:21:03;12.40;81.70
20081;DHT22;10200;49.232;9.222;2024-01-25T14:23:29;12.40;81.20
20081;DHT22;10200;49.232;9.222;2024-01-25T14:25:55;12.40;81.50
20081;DHT22;10200;49.232;9.222;2024-01-25T14:28:20;12.40;81.60
20081;DHT22;10200;49.232;9.222;2024-01-25T14:30:46;12.40;81.80
20081;DHT22;10200;49.232;9.222;2024-01-25T14:33:13;12.40;81.80
20081;DHT22;10200;49.232;9.222;2024-01-25T14:35:38;12.50;81.60
20081;DHT22;10200;49.232;9.222;2024-01-25T14:38:04;12.50;82.00
20081;DHT22;10200;49.232;9.222;2024-01-25T14:40:29;12.50;82.20
20081;DHT22;10200;49.232;9.222;2024-01-25T14:42:55;12.50;82.70
20081;DHT22;10200;49.232;9.222;2024-01-25T14:45:20;12.40;83.00
20081;DHT22;10200;49.232;9.222;2024-01-25T14:47:46;12.40;83.40
20081;DHT22;10200;49.232;9.222;2024-01-25T14:50:12;12.30;83.50
20081;DHT22;10200;49.232;9.222;2024-01-25T14:52:37;12.30;83.70
20081;DHT22;10200;49.232;9.222;2024-01-25T14:55:04;12.20;84.30
20081;DHT22;10200;49.232;9.222;2024-01-25T14:57:33;12.20;84.50
20081;DHT22;10200;49.232;9.222;2024-01-25T14:59:58;12.20;85.10
20081;DHT22;10200;49.232;9.222;2024-01-25T15:02:24;12.10;84.80
20081;DHT22;10200;49.232;9.222;2024-01-25T15:04:49;12.10;85.30
20081;DHT22;10200;49.232;9.222;2024-01-25T15:07:16;12.00;85.60
20081;DHT22;10200;49.232;9.222;2024-01-25T15:09:49;12.00;86.00
20081;DHT22;10200;49.232;9.222;2024-01-25T15:12:15;12.00;86.20
20081;DHT22;10200;49.232;9.222;2024-01-25T15:14:41;12.00;86.60
20081;DHT22;10200;49.232;9.222;2024-01-25T15:17:06;11.90;87.00
20081;DHT22;10200;49.232;9.222;2024-01-25T15:19:32;11.90;87.60
20081;DHT22;10200;49.232;9.222;2024-01-25T15:21:57;11.90;87.90
20081;DHT22;10200;49.232;9.222;2024-01-25T15:24:23;11.70;88.20
20081;DHT22;10200;49.232;9.222;2024-01-25T15:26:49;11.70;88.80
20081;DHT22;10200;49.232;9.222;2024-01-25T15:29:14;11.70;89.60
20081;DHT22;10200;49.232;9.222;2024-01-25T15:31:40;11.70;90.00
20081;DHT22;10200;49.232;9.222;2024-01-25T15:34:06;11.60;90.10